.
WxDataArchive / Data Records for 2014-05-23
2014-05-22 May 2014 2014-05-24

Data Records for Friday, 23 May 2014

Time	Temp	Chill	HIndex	Humid	Dewpt	 Wind 	HiWind	WindDir	Rain 	Barom
-----	----	-----	------	-----	-----	------	------	-------	-----	-----
00:00	56.6	56.6	56.6	69	46.5	0	1	315	0.00	30.061 
00:05	56.6	56.6	56.6	69	46.5	0	0	---	0.00	30.061 
00:10	56.5	56.5	56.5	70	46.8	0	0	---	0.00	30.061 
00:15	56.3	56.3	56.3	70	46.6	0	0	---	0.00	30.061 
00:20	56.2	56.2	56.2	71	46.9	0	0	---	0.00	30.061 
00:25	56.0	56.0	56.0	71	46.7	0	1	315	0.00	30.061 
00:30	55.9	55.9	55.9	72	47.0	0	1	315	0.00	30.062 
00:35	55.9	55.9	55.9	72	47.0	0	1	315	0.00	30.062 
00:40	55.9	55.9	55.9	72	47.0	0	1	315	0.00	30.062 
00:45	55.7	55.7	55.7	72	46.8	0	1	315	0.00	30.064 
00:50	55.7	55.7	55.7	72	46.8	0	1	315	0.00	30.064 
00:55	55.6	55.6	55.6	72	46.7	0	1	315	0.00	30.064 
01:00	55.6	55.6	55.6	73	47.1	0	1	315	0.00	30.062 
01:05	55.4	55.4	55.4	73	46.9	0	1	315	0.00	30.062 
01:10	55.3	55.3	55.3	73	46.8	0	1	315	0.00	30.062 
01:15	55.1	55.1	55.1	73	46.6	0	1	315	0.00	30.058 
01:20	55.0	55.0	55.0	74	46.9	0	1	315	0.00	30.058 
01:25	55.0	55.0	55.0	74	46.9	0	1	315	0.00	30.058 
01:30	54.8	54.8	54.8	74	46.7	0	1	315	0.00	30.060 
01:35	54.8	54.8	54.8	74	46.7	0	1	315	0.00	30.060 
01:40	54.7	54.7	54.7	74	46.6	0	1	315	0.00	30.060 
01:45	54.7	54.7	54.7	74	46.6	0	1	315	0.00	30.058 
01:50	54.5	54.5	54.5	74	46.4	0	1	315	0.00	30.058 
01:55	54.4	54.4	54.4	75	46.6	0	1	315	0.00	30.058 
02:00	54.1	54.1	54.1	76	46.7	0	1	315	0.00	30.056 
02:05	53.9	53.9	53.9	76	46.5	0	1	315	0.00	30.056 
02:10	53.8	53.8	53.8	76	46.4	0	1	315	0.00	30.056 
02:15	53.8	53.8	53.8	77	46.8	0	1	315	0.00	30.052 
02:20	53.6	53.6	53.6	76	46.2	0	1	315	0.00	30.052 
02:25	53.6	53.6	53.6	77	46.6	0	1	315	0.00	30.052 
02:30	53.5	53.5	53.5	77	46.5	0	1	315	0.00	30.055 
02:35	53.5	53.5	53.5	77	46.5	0	1	315	0.00	30.055 
02:40	53.3	53.3	53.3	77	46.3	0	1	315	0.00	30.055 
02:45	53.3	53.3	53.3	77	46.3	0	1	315	0.00	30.056 
02:50	53.2	53.2	53.2	77	46.2	0	1	315	0.00	30.056 
02:55	53.2	53.2	53.2	77	46.2	0	0	---	0.00	30.056 
03:00	53.1	53.1	53.1	77	46.1	0	0	---	0.00	30.054 
03:05	52.9	52.9	52.9	77	45.9	0	0	---	0.00	30.054 
03:10	52.8	52.8	52.8	78	46.1	0	0	---	0.00	30.054 
03:15	52.5	52.5	52.5	78	45.8	0	0	---	0.00	30.052 
03:20	52.5	52.5	52.5	79	46.2	0	0	---	0.00	30.052 
03:25	52.3	52.3	52.3	79	46.0	0	0	---	0.00	30.052 
03:30	52.2	52.2	52.2	79	45.9	0	0	---	0.00	30.052 
03:35	52.0	52.0	52.0	80	46.0	0	0	---	0.00	30.052 
03:40	52.0	52.0	52.0	80	46.0	0	0	---	0.00	30.052 
03:45	51.9	51.9	51.9	80	45.9	0	1	315	0.00	30.056 
03:50	51.7	51.7	51.7	81	46.1	0	0	---	0.00	30.056 
03:55	51.6	51.6	51.6	81	46.0	0	0	---	0.00	30.056 
04:00	51.4	51.4	51.4	81	45.8	0	0	---	0.00	30.061 
04:05	51.3	51.3	51.3	82	46.0	0	0	---	0.00	30.061 
04:10	51.3	51.3	51.3	82	46.0	0	0	---	0.00	30.061 
04:15	51.3	51.3	51.3	82	46.0	0	0	---	0.00	30.065 
04:20	51.3	51.3	51.3	82	46.0	0	1	315	0.00	30.065 
04:25	51.3	51.3	51.3	82	46.0	0	0	---	0.00	30.065 
04:30	51.3	51.3	51.3	82	46.0	0	1	315	0.00	30.067 
04:35	51.3	51.3	51.3	82	46.0	0	1	315	0.00	30.067 
04:40	51.4	51.4	51.4	82	46.1	0	1	315	0.00	30.067 
04:45	51.4	51.4	51.4	82	46.1	0	1	315	0.00	30.068 
04:50	51.4	51.4	51.4	82	46.1	0	1	315	0.00	30.068 
04:55	51.4	51.4	51.4	82	46.1	0	1	315	0.00	30.068 
05:00	51.3	51.3	51.3	82	46.0	0	1	315	0.00	30.069 
05:05	51.3	51.3	51.3	82	46.0	0	1	315	0.00	30.069 
05:10	51.3	51.3	51.3	82	46.0	0	1	315	0.00	30.069 
05:15	51.1	51.1	51.1	83	46.1	0	1	315	0.00	30.071 
05:20	51.1	51.1	51.1	83	46.1	0	1	315	0.00	30.071 
05:25	51.1	51.1	51.1	83	46.1	0	1	315	0.00	30.071 
05:30	51.1	51.1	51.1	83	46.1	0	1	315	0.00	30.075 
05:35	51.1	51.1	51.1	83	46.1	0	1	315	0.00	30.075 
05:40	51.0	51.0	51.0	83	46.0	0	1	315	0.00	30.075 
05:45	51.0	51.0	51.0	83	46.0	0	1	315	0.00	30.082 
05:50	50.8	50.8	50.8	84	46.1	0	1	315	0.00	30.082 
05:55	50.8	50.8	50.8	84	46.1	0	1	315	0.00	30.082 
06:00	50.8	50.8	50.8	84	46.1	0	1	315	0.00	30.086 
06:05	50.7	50.7	50.7	84	46.0	0	1	315	0.00	30.086 
06:10	50.5	50.5	50.5	84	45.8	0	1	315	0.00	30.086 
06:15	50.5	50.5	50.5	84	45.8	0	0	---	0.00	30.094 
06:20	50.4	50.4	50.4	85	46.1	0	1	315	0.00	30.094 
06:25	50.4	50.4	50.4	85	46.1	0	1	315	0.00	30.094 
06:30	50.4	50.4	50.4	85	46.1	0	1	315	0.00	30.099 
06:35	50.2	50.2	50.2	85	45.9	0	0	---	0.00	30.099 
06:40	50.2	50.2	50.2	85	45.9	0	0	---	0.00	30.099 
06:45	50.2	50.2	50.2	86	46.2	0	0	---	0.00	30.104 
06:50	50.1	50.1	50.1	86	46.1	0	0	---	0.00	30.104 
06:55	50.1	50.1	50.1	86	46.1	0	0	---	0.00	30.104 
07:00	50.1	50.1	50.1	86	46.1	0	0	---	0.00	30.109 
07:05	50.2	50.2	50.2	86	46.2	0	0	---	0.00	30.109 
07:10	50.4	50.4	50.4	86	46.4	0	0	---	0.00	30.109 
07:15	50.5	50.5	50.5	86	46.5	0	0	---	0.00	30.109 
07:20	50.8	50.8	50.8	86	46.8	0	0	---	0.00	30.109 
07:25	51.1	51.1	51.1	86	47.1	0	0	---	0.00	30.109 
07:30	51.4	51.4	51.4	85	47.0	0	1	315	0.00	30.114 
07:35	51.7	51.7	51.7	84	47.0	0	1	315	0.00	30.114 
07:40	52.2	52.2	52.2	84	47.5	0	1	315	0.00	30.114 
07:45	52.5	52.5	52.5	82	47.2	0	1	315	0.00	30.111 
07:50	52.9	52.9	52.9	81	47.2	0	2	315	0.00	30.111 
07:55	53.3	53.3	53.3	80	47.3	0	2	315	0.00	30.111 
08:00	53.8	53.8	53.8	79	47.4	0	2	315	0.00	30.116 
08:05	54.2	54.2	54.2	77	47.1	0	1	315	0.00	30.116 
08:10	54.8	54.8	54.8	77	47.7	0	1	315	0.00	30.116 
08:15	55.1	55.1	55.1	75	47.3	0	2	315	0.00	30.125 
08:20	55.4	55.4	55.4	73	46.9	0	3	315	0.00	30.125 
08:25	55.9	55.9	55.9	71	46.6	0	2	315	0.00	30.125 
08:30	56.3	56.3	56.3	70	46.6	0	2	315	0.00	30.126 
08:35	56.5	56.5	56.5	68	46.1	1	3	315	0.00	30.126 
08:40	56.7	56.7	56.7	68	46.3	1	4	315	0.00	30.126 
08:45	57.0	57.0	57.0	67	46.2	0	2	315	0.00	30.128 
08:50	57.5	57.5	57.5	68	47.0	1	3	68	0.00	30.128 
08:55	57.8	57.8	57.8	66	46.5	1	4	270	0.00	30.128 
09:00	57.8	57.8	57.8	65	46.1	1	3	270	0.00	30.131 
09:05	58.0	58.0	58.0	65	46.3	1	2	270	0.00	30.131 
09:10	58.4	58.4	58.4	64	46.3	0	2	270	0.00	30.131 
09:15	58.9	58.9	58.9	65	47.2	0	1	270	0.00	30.130 
09:20	59.3	59.3	59.3	65	47.5	1	3	270	0.00	30.130 
09:25	59.5	59.5	59.5	63	46.9	0	2	270	0.00	30.130 
09:30	59.6	59.6	59.6	62	46.6	1	4	270	0.00	30.131 
09:35	59.6	59.6	59.6	60	45.7	1	3	270	0.00	30.131 
09:40	59.8	59.8	59.8	60	45.9	0	4	270	0.00	30.131 
09:45	59.9	59.9	59.9	59	45.5	1	3	270	0.00	30.136 
09:50	60.1	60.1	60.1	59	45.7	1	2	270	0.00	30.136 
09:55	60.4	60.4	60.4	58	45.6	1	4	292	0.00	30.136 
10:00	60.9	60.9	60.9	62	47.8	0	3	292	0.00	30.140 
10:05	61.0	61.0	61.0	57	45.7	1	5	292	0.00	30.140 
10:10	61.0	61.0	61.0	56	45.2	1	4	315	0.00	30.140 
10:15	61.3	61.3	61.3	57	45.9	1	4	315	0.00	30.133 
10:20	61.5	61.5	61.5	56	45.7	1	3	292	0.00	30.133 
10:25	61.8	61.8	61.8	58	46.9	1	3	315	0.00	30.133 
10:30	62.4	62.4	62.4	56	46.5	0	2	315	0.00	30.133 
10:35	62.6	62.6	62.6	54	45.7	1	5	315	0.00	30.133 
10:40	62.6	62.6	62.6	55	46.2	1	5	338	0.00	30.133 
10:45	62.3	62.3	62.3	54	45.4	2	6	315	0.00	30.133 
10:50	62.1	62.1	62.1	53	44.8	1	5	292	0.00	30.133 
10:55	62.3	62.3	62.3	54	45.4	1	3	338	0.00	30.133 
11:00	62.7	62.7	62.7	53	45.3	2	4	315	0.00	30.134 
11:05	62.9	62.9	62.9	54	46.0	2	4	315	0.00	30.134 
11:10	63.1	63.1	63.1	53	45.7	1	4	0	0.00	30.134 
11:15	63.1	63.1	63.1	50	44.2	2	7	0	0.00	30.135 
11:20	63.2	63.2	63.2	52	45.3	1	4	292	0.00	30.135 
11:25	63.4	63.4	63.4	48	43.4	2	6	270	0.00	30.135 
11:30	63.2	63.2	63.2	51	44.8	2	6	270	0.00	30.137 
11:35	63.4	63.4	63.4	51	45.0	2	5	315	0.00	30.137 
11:40	63.4	63.4	63.4	50	44.4	2	5	270	0.00	30.137 
11:45	63.5	63.5	63.5	50	44.5	3	6	315	0.00	30.140 
11:50	63.5	63.5	63.5	51	45.0	3	6	292	0.00	30.140 
11:55	64.0	64.0	64.0	51	45.5	2	5	270	0.00	30.140 
12:00	64.2	64.2	64.2	49	44.6	3	5	315	0.00	30.145 
12:05	64.2	64.2	64.2	48	44.1	2	5	315	0.00	30.145 
12:10	64.5	64.5	64.5	50	45.4	1	3	270	0.00	30.145 
12:15	64.8	64.8	64.8	50	45.7	2	5	315	0.00	30.143 
12:20	64.8	64.8	64.8	48	44.6	1	5	292	0.00	30.143 
12:25	64.8	64.8	64.8	48	44.6	3	6	292	0.00	30.143 
12:30	65.2	65.2	65.2	50	46.1	2	5	315	0.00	30.143 
12:35	65.2	65.2	65.2	48	45.0	3	7	292	0.00	30.143 
12:40	65.3	65.3	65.3	50	46.2	2	5	292	0.00	30.143 
12:45	65.5	65.5	65.5	47	44.7	3	5	338	0.00	30.140 
12:50	65.3	65.3	65.3	47	44.5	2	5	292	0.00	30.140 
12:55	65.5	65.5	65.5	49	45.8	2	10	315	0.00	30.140 
13:00	65.2	65.2	65.2	49	45.6	3	5	315	0.00	30.143 
13:05	65.6	65.6	65.6	49	45.9	2	3	292	0.00	30.143 
13:10	65.8	65.8	65.8	48	45.6	2	5	338	0.00	30.143 
13:15	66.0	66.0	66.0	52	47.9	1	5	315	0.00	30.139 
13:20	66.3	66.3	66.3	47	45.5	2	4	315	0.00	30.139 
13:25	66.6	66.6	66.6	50	47.4	2	5	315	0.00	30.139 
13:30	66.4	66.4	66.4	47	45.5	3	5	315	0.00	30.132 
13:35	66.4	66.4	66.4	47	45.5	3	5	270	0.00	30.132 
13:40	66.1	66.1	66.1	46	44.7	3	10	292	0.00	30.132 
13:45	66.3	66.3	66.3	48	46.0	2	6	315	0.00	30.133 
13:50	66.4	66.4	66.4	48	46.1	2	5	315	0.00	30.133 
13:55	66.9	66.9	66.9	47	46.0	3	7	292	0.00	30.133 
14:00	66.9	66.9	66.9	46	45.4	1	5	315	0.00	30.132 
14:05	67.1	67.1	67.1	46	45.6	2	5	315	0.00	30.132 
14:10	67.4	67.4	67.4	46	45.9	1	5	315	0.00	30.132 
14:15	67.6	67.6	67.6	48	47.2	2	6	315	0.00	30.132 
14:20	68.1	68.1	68.1	46	46.5	1	5	0	0.00	30.132 
14:25	68.3	68.3	68.3	46	46.7	2	5	338	0.00	30.132 
14:30	68.1	68.1	68.1	44	45.4	3	6	270	0.00	30.130 
14:35	67.9	67.9	67.9	45	45.8	2	5	338	0.00	30.130 
14:40	68.3	68.3	68.3	47	47.3	2	5	292	0.00	30.130 
14:45	68.8	68.8	68.8	44	46.0	2	5	292	0.00	30.124 
14:50	68.6	68.6	68.6	43	45.2	2	5	338	0.00	30.124 
14:55	68.9	68.9	68.9	45	46.7	2	5	292	0.00	30.124 
15:00	68.6	68.6	68.6	44	45.8	3	7	292	0.00	30.124 
15:05	68.6	68.6	68.6	44	45.8	1	3	90	0.00	30.124 
15:10	68.9	68.9	68.9	45	46.7	3	5	270	0.00	30.124 
15:15	69.3	69.3	69.3	47	48.2	1	4	315	0.00	30.122 
15:20	69.9	69.9	69.9	43	46.4	2	5	338	0.00	30.122 
15:25	70.3	70.3	70.3	42	46.1	1	3	292	0.00	30.122 
15:30	69.9	69.9	69.9	43	46.4	3	6	292	0.00	30.119 
15:35	69.9	69.9	69.9	43	46.4	2	5	315	0.00	30.119 
15:40	70.1	70.1	70.1	43	46.6	2	5	270	0.00	30.119 
15:45	70.1	70.1	70.1	45	47.8	2	5	292	0.00	30.119 
15:50	70.3	70.3	70.3	45	47.9	1	5	315	0.00	30.119 
15:55	70.3	70.3	70.3	42	46.1	2	4	315	0.00	30.119 
16:00	70.1	70.1	70.1	43	46.6	2	7	338	0.00	30.117 
16:05	70.3	70.3	70.3	43	46.7	2	5	315	0.00	30.117 
16:10	70.3	70.3	70.3	42	46.1	1	3	315	0.00	30.117 
16:15	70.4	70.4	70.4	44	47.4	2	5	338	0.00	30.115 
16:20	70.9	70.9	70.9	42	46.6	1	4	338	0.00	30.115 
16:25	70.9	70.9	70.9	39	44.7	2	5	315	0.00	30.115 
16:30	70.9	70.9	70.9	41	46.0	1	5	112	0.00	30.114 
16:35	71.3	71.3	71.3	42	47.0	1	5	112	0.00	30.114 
16:40	71.5	71.5	71.5	43	47.8	1	3	292	0.00	30.114 
16:45	71.8	71.8	71.8	41	46.8	2	4	270	0.00	30.113 
16:50	71.6	71.6	71.6	42	47.3	1	4	315	0.00	30.113 
16:55	72.0	72.0	72.0	42	47.6	0	2	315	0.00	30.113 
17:00	72.1	72.1	72.1	39	45.8	1	3	315	0.00	30.112 
17:05	71.8	71.8	71.8	39	45.5	1	4	292	0.00	30.112 
17:10	71.6	71.6	71.6	39	45.3	2	5	292	0.00	30.112 
17:15	71.5	71.5	71.5	38	44.5	2	4	270	0.00	30.113 
17:20	71.5	71.5	71.5	40	45.9	1	4	270	0.00	30.113 
17:25	71.3	71.3	71.3	39	45.1	2	4	292	0.00	30.113 
17:30	71.3	71.3	71.3	39	45.1	2	4	315	0.00	30.111 
17:35	71.5	71.5	71.5	38	44.5	2	5	315	0.00	30.111 
17:40	71.5	71.5	71.5	42	47.2	2	4	338	0.00	30.111 
17:45	71.6	71.6	71.6	38	44.6	2	6	292	0.00	30.113 
17:50	71.8	71.8	71.8	41	46.8	1	3	292	0.00	30.113 
17:55	71.5	71.5	71.5	40	45.9	2	4	292	0.00	30.113 
18:00	71.1	71.1	71.1	40	45.5	1	4	292	0.00	30.112 
18:05	71.1	71.1	71.1	40	45.5	1	4	315	0.00	30.112 
18:10	71.1	71.1	71.1	39	44.9	1	4	292	0.00	30.112 
18:15	71.5	71.5	71.5	40	45.9	1	4	292	0.00	30.115 
18:20	71.1	71.1	71.1	39	44.9	1	4	292	0.00	30.115 
18:25	70.8	70.8	70.8	40	45.3	1	4	292	0.00	30.115 
18:30	70.8	70.8	70.8	40	45.3	2	4	292	0.00	30.114 
18:35	70.8	70.8	70.8	40	45.3	1	3	292	0.00	30.114 
18:40	70.6	70.6	70.6	40	45.1	1	3	292	0.00	30.114 
18:45	70.8	70.8	70.8	43	47.2	0	3	292	0.00	30.113 
18:50	70.8	70.8	70.8	42	46.6	0	2	292	0.00	30.113 
18:55	70.6	70.6	70.6	40	45.1	1	4	292	0.00	30.113 
19:00	70.4	70.4	70.4	41	45.6	1	3	292	0.00	30.107 
19:05	70.3	70.3	70.3	41	45.5	1	3	292	0.00	30.107 
19:10	70.3	70.3	70.3	41	45.5	1	3	292	0.00	30.107 
19:15	70.1	70.1	70.1	41	45.3	1	3	292	0.00	30.102 
19:20	70.1	70.1	70.1	41	45.3	1	2	292	0.00	30.102 
19:25	69.9	69.9	69.9	41	45.1	2	4	292	0.00	30.102 
19:30	69.6	69.6	69.6	41	44.8	2	6	292	0.00	30.104 
19:35	69.4	69.4	69.4	43	45.9	1	4	315	0.00	30.104 
19:40	69.3	69.3	69.3	44	46.4	1	3	315	0.00	30.104 
19:45	69.3	69.3	69.3	43	45.8	1	4	315	0.00	30.101 
19:50	68.9	68.9	68.9	43	45.5	1	3	315	0.00	30.101 
19:55	68.8	68.8	68.8	43	45.4	1	3	315	0.00	30.101 
20:00	68.6	68.6	68.6	44	45.8	0	2	315	0.00	30.101 
20:05	68.4	68.4	68.4	44	45.6	1	3	315	0.00	30.101 
20:10	68.3	68.3	68.3	45	46.1	0	2	315	0.00	30.101 
20:15	67.9	67.9	67.9	45	45.8	1	3	315	0.00	30.099 
20:20	67.8	67.8	67.8	45	45.7	1	3	315	0.00	30.099 
20:25	67.6	67.6	67.6	46	46.1	0	2	315	0.00	30.099 
20:30	67.3	67.3	67.3	46	45.8	0	2	315	0.00	30.110 
20:35	66.9	66.9	66.9	46	45.4	1	3	315	0.00	30.110 
20:40	66.6	66.6	66.6	47	45.7	1	3	315	0.00	30.110 
20:45	66.4	66.4	66.4	47	45.5	1	2	315	0.00	30.113 
20:50	66.1	66.1	66.1	48	45.8	0	2	315	0.00	30.113 
20:55	65.8	65.8	65.8	49	46.1	0	2	315	0.00	30.113 
21:00	65.5	65.5	65.5	49	45.8	0	1	315	0.00	30.115 
21:05	65.2	65.2	65.2	50	46.1	0	1	315	0.00	30.115 
21:10	65.0	65.0	65.0	50	45.9	0	1	315	0.00	30.115 
21:15	64.7	64.7	64.7	51	46.1	0	1	315	0.00	30.116 
21:20	64.5	64.5	64.5	51	46.0	0	1	315	0.00	30.116 
21:25	64.2	64.2	64.2	52	46.2	0	2	315	0.00	30.116 
21:30	63.9	63.9	63.9	53	46.4	0	1	315	0.00	30.125 
21:35	63.5	63.5	63.5	53	46.1	0	1	315	0.00	30.125 
21:40	63.2	63.2	63.2	54	46.3	0	2	315	0.00	30.125 
21:45	63.1	63.1	63.1	54	46.2	0	1	315	0.00	30.129 
21:50	62.7	62.7	62.7	55	46.3	0	2	315	0.00	30.129 
21:55	62.6	62.6	62.6	55	46.2	0	1	315	0.00	30.129 
22:00	62.3	62.3	62.3	56	46.4	0	1	315	0.00	30.128 
22:05	62.0	62.0	62.0	57	46.6	0	1	315	0.00	30.128 
22:10	61.8	61.8	61.8	57	46.4	0	2	315	0.00	30.128 
22:15	61.6	61.6	61.6	57	46.2	0	3	315	0.00	30.128 
22:20	61.3	61.3	61.3	58	46.4	0	2	315	0.00	30.128 
22:25	61.2	61.2	61.2	58	46.3	0	2	315	0.00	30.128 
22:30	60.9	60.9	60.9	59	46.5	0	1	315	0.00	30.130 
22:35	60.7	60.7	60.7	59	46.3	0	2	315	0.00	30.130 
22:40	60.5	60.5	60.5	59	46.1	0	1	315	0.00	30.130 
22:45	60.2	60.2	60.2	60	46.3	0	1	315	0.00	30.133 
22:50	59.9	59.9	59.9	60	46.0	0	1	315	0.00	30.133 
22:55	59.8	59.8	59.8	60	45.9	0	1	315	0.00	30.133 
23:00	59.6	59.6	59.6	60	45.7	0	1	315	0.00	30.131 
23:05	59.5	59.5	59.5	61	46.0	0	1	315	0.00	30.131 
23:10	59.2	59.2	59.2	61	45.8	0	1	315	0.00	30.131 
23:15	59.0	59.0	59.0	62	46.0	0	1	315	0.00	30.142 
23:20	58.7	58.7	58.7	62	45.7	0	1	315	0.00	30.142 
23:25	58.6	58.6	58.6	63	46.0	0	1	315	0.00	30.142 
23:30	58.4	58.4	58.4	63	45.9	0	1	315	0.00	30.143 
23:35	58.3	58.3	58.3	64	46.2	0	2	315	0.00	30.143 
23:40	58.0	58.0	58.0	64	45.9	0	1	315	0.00	30.143 
23:45	57.8	57.8	57.8	65	46.1	0	1	315	0.00	30.147 
23:50	57.5	57.5	57.5	65	45.8	0	1	315	0.00	30.147 
23:55	57.3	57.3	57.3	66	46.0	0	2	315	0.00	30.147 

CoCoRaHS
IN-AL-39
A2 Web Hosting
Creative Commons License
GoDaddy
search engine by freefind advanced

loaded 2018-11-15 19:02:55 • last modified 2010-11-18 10:43:29
Privacy PolicyDisclaimer
• wx.awcolley.com is powered by PmWiki v.2002016 •
• all content (unless otherwise noted) © 2018 A W Colley